createdAt,value
2022-11-05T00:00:00.806Z,99651.62
2022-11-05T00:05:23.060Z,99662.42
2022-11-05T00:10:31.173Z,99660.20
2022-11-05T00:15:53.234Z,99657.39
2022-11-05T00:20:56.850Z,99653.66
2022-11-05T00:26:02.408Z,99643.15
2022-11-05T00:31:10.094Z,99634.81
2022-11-05T00:36:13.132Z,99622.30
2022-11-05T00:41:16.544Z,99625.34
2022-11-05T00:46:19.955Z,99626.48
2022-11-05T00:51:23.470Z,99619.89
2022-11-05T00:56:26.993Z,99612.69
2022-11-05T01:01:30.387Z,99610.34
2022-11-05T01:06:33.814Z,99605.70
2022-11-05T01:11:37.459Z,99605.34
2022-11-05T01:16:40.748Z,99599.91
2022-11-05T01:21:43.953Z,99598.73
2022-11-05T01:26:47.056Z,99597.86
2022-11-05T01:31:50.261Z,99591.78
2022-11-05T01:36:53.369Z,99586.71
2022-11-05T01:41:56.883Z,99583.20
2022-11-05T01:47:00.097Z,99583.39
2022-11-05T01:52:05.244Z,99580.29
2022-11-05T01:57:10.894Z,99573.98
2022-11-05T02:02:14.479Z,99571.00
2022-11-05T02:07:19.374Z,99564.52
2022-11-05T02:12:24.081Z,99570.80
2022-11-05T02:17:27.223Z,99578.58
2022-11-05T02:22:39.544Z,99579.04
2022-11-05T02:27:42.753Z,99577.77
2022-11-05T02:33:05.007Z,99578.42
2022-11-05T02:38:23.063Z,99579.92
2022-11-05T02:43:33.848Z,99573.16
2022-11-05T02:48:58.355Z,99575.91
2022-11-05T02:54:26.140Z,99575.01
2022-11-05T02:59:29.758Z,99578.85
2022-11-05T03:04:33.481Z,99583.05
2022-11-05T03:09:48.667Z,99590.31
2022-11-05T03:15:32.330Z,99600.10
2022-11-05T03:20:43.928Z,99601.27
2022-11-05T03:25:51.895Z,99597.66
2022-11-05T03:30:57.308Z,99595.71
2022-11-05T03:36:07.286Z,99592.15
2022-11-05T03:41:14.345Z,99593.39
2022-11-05T03:46:32.324Z,99583.01
2022-11-05T03:51:53.557Z,99577.48
2022-11-05T03:57:11.074Z,99581.82
2022-11-05T04:02:16.350Z,99588.80
2022-11-05T04:07:38.512Z,99586.21
2022-11-05T04:13:00.556Z,99589.90
2022-11-05T04:18:03.869Z,99587.11
2022-11-05T04:23:26.531Z,99583.58
2022-11-05T04:28:49.707Z,99575.79
2022-11-05T04:33:53.017Z,99585.98
2022-11-05T04:38:56.635Z,99590.02
2022-11-05T04:43:59.784Z,99588.64
2022-11-05T04:49:03.051Z,99582.95
2022-11-05T04:54:06.258Z,99600.06
2022-11-05T04:59:09.697Z,99608.56
2022-11-05T05:04:13.596Z,99613.27
2022-11-05T05:09:16.908Z,99609.92
2022-11-05T05:14:20.217Z,99612.71
2022-11-05T05:19:24.556Z,99627.23
2022-11-05T05:24:27.964Z,99647.40
2022-11-05T05:29:31.172Z,99662.39
2022-11-05T05:34:34.278Z,99666.23
2022-11-05T05:39:37.589Z,99668.77
2022-11-05T05:44:41.209Z,99653.14
2022-11-05T05:49:44.311Z,99657.15
2022-11-05T05:54:47.526Z,99655.02
2022-11-05T05:59:50.933Z,99661.27
2022-11-05T06:04:54.652Z,99671.27
2022-11-05T06:09:57.860Z,99679.06
2022-11-05T06:15:01.071Z,99685.86
2022-11-05T06:20:05.712Z,99695.08
2022-11-05T06:25:10.044Z,99696.55
2022-11-05T06:30:14.892Z,99690.61
2022-11-05T06:35:18.199Z,99693.15
2022-11-05T06:40:21.406Z,99703.35
2022-11-05T06:45:24.926Z,99707.80
2022-11-05T06:50:28.567Z,99711.90
2022-11-05T06:55:32.572Z,99714.08
2022-11-05T07:00:36.534Z,99719.25
2022-11-05T07:05:44.207Z,99726.16
2022-11-05T07:10:48.438Z,99728.36
2022-11-05T07:15:51.783Z,99731.34
2022-11-05T07:20:57.624Z,99739.76
2022-11-05T07:26:01.446Z,99748.85
2022-11-05T07:31:05.980Z,99757.66
2022-11-05T07:36:10.528Z,99755.67
2022-11-05T07:41:13.935Z,99757.05
2022-11-05T07:46:19.608Z,99763.27
2022-11-05T07:51:23.014Z,99768.25
2022-11-05T07:56:26.837Z,99775.56
2022-11-05T08:01:30.352Z,99781.70
2022-11-05T08:06:33.760Z,99789.43
2022-11-05T08:11:36.865Z,99796.48
2022-11-05T08:16:41.203Z,99804.52
2022-11-05T08:21:44.830Z,99807.64
2022-11-05T08:26:48.340Z,99809.11
2022-11-05T08:31:51.623Z,99815.04
2022-11-05T08:36:55.182Z,99825.65
2022-11-05T08:41:58.472Z,99835.20
2022-11-05T08:47:03.011Z,99840.34
2022-11-05T08:52:06.532Z,99842.04
2022-11-05T08:57:10.045Z,99850.90
2022-11-05T09:02:13.590Z,99850.85
2022-11-05T09:07:16.964Z,99854.30
2022-11-05T09:12:20.173Z,99857.14
2022-11-05T09:17:24.635Z,99862.48
2022-11-05T09:22:29.002Z,99865.63
2022-11-05T09:27:32.459Z,99863.31
2022-11-05T09:32:35.684Z,99868.96
2022-11-05T09:37:39.046Z,99880.70
2022-11-05T09:42:52.936Z,99891.45
2022-11-05T09:48:02.217Z,99892.30
2022-11-05T09:53:06.569Z,99893.27
2022-11-05T09:58:28.823Z,99902.15
2022-11-05T10:03:34.542Z,99907.95
2022-11-05T10:08:44.384Z,99913.77
2022-11-05T10:13:51.099Z,99919.84
2022-11-05T10:19:24.743Z,99923.40
2022-11-05T10:24:28.543Z,99924.20
2022-11-05T10:29:34.923Z,99932.77
2022-11-05T10:34:39.593Z,99935.73
2022-11-05T10:39:43.717Z,99949.30
2022-11-05T10:45:44.044Z,99956.91
2022-11-05T10:50:48.683Z,99963.05
2022-11-05T10:55:54.250Z,99970.02
2022-11-05T11:00:57.517Z,99980.70
2022-11-05T11:06:21.141Z,99986.38
2022-11-05T11:11:36.128Z,99997.14
2022-11-05T11:16:44.248Z,99996.45
2022-11-05T11:22:08.155Z,100002.14
2022-11-05T11:27:16.164Z,100005.30
2022-11-05T11:32:21.659Z,100010.09
2022-11-05T11:37:34.867Z,100019.34
2022-11-05T11:42:40.430Z,100026.46
2022-11-05T11:47:46.081Z,100024.55
2022-11-05T11:52:49.818Z,100027.50
2022-11-05T11:58:05.109Z,100024.71
2022-11-05T12:03:21.720Z,100026.80
2022-11-05T12:08:58.355Z,100039.71
2022-11-05T12:14:06.077Z,100039.48
2022-11-05T12:19:42.320Z,100034.59
2022-11-05T12:25:11.779Z,100032.81
2022-11-05T12:30:20.416Z,100038.96
2022-11-05T12:35:48.241Z,100041.64
2022-11-05T12:41:22.840Z,100048.05
2022-11-05T12:46:41.480Z,100051.41
2022-11-05T12:51:56.769Z,100056.16
2022-11-05T12:57:04.055Z,100063.25
2022-11-05T13:02:19.526Z,100067.60
2022-11-05T13:07:32.191Z,100080.34
2022-11-05T13:12:39.326Z,100088.27
2022-11-05T13:18:24.288Z,100091.52
2022-11-05T13:23:32.814Z,100093.92
2022-11-05T13:29:00.222Z,100104.63
2022-11-05T13:34:11.016Z,100112.69
2022-11-05T13:39:23.910Z,100121.30
2022-11-05T13:44:32.750Z,100132.71
2022-11-05T13:49:45.376Z,100144.73
2022-11-05T13:55:26.166Z,100154.77
2022-11-05T14:00:37.496Z,100165.15
2022-11-05T14:05:42.856Z,100164.16
2022-11-05T14:10:58.933Z,100169.40
2022-11-05T14:16:07.989Z,100185.19
2022-11-05T14:21:26.853Z,100193.55
2022-11-05T14:26:34.783Z,100200.03
2022-11-05T14:37:13.030Z,100211.64
2022-11-05T14:42:22.270Z,100217.10
2022-11-05T14:47:29.893Z,100222.33
2022-11-05T14:52:33.715Z,100227.92
2022-11-05T14:57:42.763Z,100223.77
2022-11-05T15:03:05.939Z,100224.04
2022-11-05T15:08:25.937Z,100225.91
2022-11-05T15:13:34.878Z,100228.27
2022-11-05T15:18:46.275Z,100231.58
2022-11-05T15:23:53.073Z,100232.38
2022-11-05T15:28:57.409Z,100234.94
2022-11-05T15:34:15.872Z,100236.14
2022-11-05T15:39:42.224Z,100240.20
2022-11-05T15:44:48.418Z,100238.80
2022-11-05T15:49:51.712Z,100240.59
2022-11-05T15:55:10.234Z,100248.24
2022-11-05T16:00:24.066Z,100252.06
2022-11-05T16:05:34.215Z,100256.85
2022-11-05T16:10:39.375Z,100263.77
2022-11-05T16:15:54.225Z,100273.20
2022-11-05T16:21:07.321Z,100285.84
2022-11-05T16:26:55.861Z,100301.95
2022-11-05T16:31:54.170Z,100316.46
2022-11-05T16:36:59.504Z,100323.39
2022-11-05T16:42:22.884Z,100333.18
2022-11-05T16:47:26.846Z,100330.56
2022-11-05T16:52:30.097Z,100328.39
2022-11-05T16:57:35.647Z,100335.98
2022-11-05T17:02:39.193Z,100347.27
2022-11-05T17:07:43.426Z,100355.34
2022-11-05T17:12:46.940Z,100362.84
2022-11-05T17:17:51.694Z,100365.26
2022-11-05T17:22:56.020Z,100371.67
2022-11-05T17:28:00.047Z,100373.69
2022-11-05T17:33:03.339Z,100379.65
2022-11-05T17:38:06.970Z,100386.25
2022-11-05T17:43:10.831Z,100393.90
2022-11-05T17:48:16.399Z,100403.50
2022-11-05T17:53:20.387Z,100407.91
2022-11-05T17:58:24.411Z,100414.45
2022-11-05T18:03:28.347Z,100428.11
2022-11-05T18:08:32.527Z,100430.24
2022-11-05T18:13:36.392Z,100431.05
2022-11-05T18:18:39.702Z,100437.54
2022-11-05T18:23:43.428Z,100436.60
2022-11-05T18:28:46.946Z,100446.53
2022-11-05T18:33:51.486Z,100452.14
2022-11-05T18:38:58.034Z,100460.04
2022-11-05T18:44:03.599Z,100456.51
2022-11-05T18:49:08.378Z,100461.44
2022-11-05T18:54:11.886Z,100465.64
2022-11-05T19:05:00.303Z,100476.53
2022-11-05T19:10:08.141Z,100479.04
2022-11-05T19:15:12.597Z,100481.80
2022-11-05T19:20:16.873Z,100483.53
2022-11-05T19:25:20.302Z,100487.70
2022-11-05T19:30:26.371Z,100488.00
2022-11-05T19:35:29.777Z,100490.98
2022-11-05T19:40:33.630Z,100495.42
2022-11-05T19:45:44.461Z,100497.66
2022-11-05T19:50:49.229Z,100503.76
2022-11-05T19:55:52.958Z,100504.52
2022-11-05T20:00:56.464Z,100504.32
2022-11-05T20:06:06.182Z,100505.31
2022-11-05T20:11:09.539Z,100506.66
2022-11-05T20:16:20.800Z,100511.30
2022-11-05T20:21:26.247Z,100515.18
2022-11-05T20:26:31.185Z,100519.87
2022-11-05T20:31:35.131Z,100523.53
2022-11-05T20:36:39.457Z,100521.09
2022-11-05T20:41:42.918Z,100524.44
2022-11-05T20:46:46.333Z,100527.77
2022-11-05T20:51:49.640Z,100523.88
2022-11-05T20:56:52.743Z,100526.40
2022-11-05T21:01:57.082Z,100533.10
2022-11-05T21:07:01.155Z,100535.77
2022-11-05T21:12:10.573Z,100537.64
2022-11-05T21:17:14.893Z,100544.23
2022-11-05T21:22:18.000Z,100549.23
2022-11-05T21:27:21.105Z,100548.19
2022-11-05T21:32:24.313Z,100549.38
2022-11-05T21:37:27.624Z,100551.16
2022-11-05T21:42:30.728Z,100551.18
2022-11-05T21:47:35.489Z,100555.98
2022-11-05T21:52:57.729Z,100561.20
2022-11-05T21:58:24.283Z,100559.00
2022-11-05T22:03:28.211Z,100565.95
2022-11-05T22:08:31.314Z,100563.09
2022-11-05T22:13:35.039Z,100563.08
2022-11-05T22:18:38.446Z,100568.60
2022-11-05T22:23:42.167Z,100570.04
2022-11-05T22:28:45.684Z,100570.54
2022-11-05T22:33:49.096Z,100578.81
2022-11-05T22:38:52.404Z,100586.31
2022-11-05T22:43:56.689Z,100590.88
2022-11-05T22:49:01.602Z,100592.20
2022-11-05T22:54:07.551Z,100600.27
2022-11-05T22:59:15.770Z,100601.94
2022-11-05T23:04:19.815Z,100603.66
2022-11-05T23:09:53.332Z,100601.76
2022-11-05T23:14:58.511Z,100608.80
2022-11-05T23:20:20.327Z,100604.91
2022-11-05T23:25:25.070Z,100607.14
2022-11-05T23:30:28.379Z,100613.61
2022-11-05T23:36:03.538Z,100619.20
2022-11-05T23:41:25.587Z,100622.16
2022-11-05T23:46:47.332Z,100622.37
2022-11-05T23:51:50.953Z,100620.02
2022-11-05T23:56:54.683Z,100622.96
